Time;durP1;ratioP1;P1;durP2;ratioP2;P2;SDS_P1;SDS_P2;PMS_P1;PMS_P2;Temp;Humidity;BMP_temperature;BMP_pressure;BME280_temperature;BME280_humidity;BME280_pressure;Samples;Min_cycle;Max_cycle;Signal;HPM_P1;HPM_P2
2021/10/08 00:01:31;;;;;;;30.92;17.30;;;;;;;11.43;92.90;102247.72;5085214;28;20055;-67
2021/10/08 00:03:57;;;;;;;29.58;19.30;;;;;;;11.42;93.18;102247.69;5085415;28;20044;-66
2021/10/08 00:06:22;;;;;;;30.70;18.90;;;;;;;11.49;93.02;102246.94;5085008;28;20115;-66
2021/10/08 00:08:48;;;;;;;27.63;18.77;;;;;;;11.47;93.25;102233.91;5085191;28;20086;-66
2021/10/08 00:11:14;;;;;;;30.80;17.35;;;;;;;11.52;93.02;102244.38;5084808;28;20028;-66
2021/10/08 00:13:40;;;;;;;26.27;17.27;;;;;;;11.53;92.99;102244.41;5085080;28;20051;-66
2021/10/08 00:16:06;;;;;;;30.40;17.77;;;;;;;11.55;92.99;102241.84;5085058;28;20021;-67
2021/10/08 00:18:32;;;;;;;33.08;18.80;;;;;;;11.57;93.02;102250.56;5085118;28;20024;-66
2021/10/08 00:20:58;;;;;;;29.83;18.23;;;;;;;11.59;92.38;102254.06;5084875;28;20048;-67
2021/10/08 00:23:23;;;;;;;35.65;19.25;;;;;;;11.55;92.61;102252.25;5084986;28;20589;-66
2021/10/08 00:25:49;;;;;;;32.75;19.83;;;;;;;11.56;92.00;102254.00;5084452;28;20021;-66
2021/10/08 00:28:14;;;;;;;35.92;20.48;;;;;;;11.56;91.55;102256.63;5084751;28;20024;-65
2021/10/08 00:30:39;;;;;;;36.10;22.02;;;;;;;11.47;91.39;102251.25;5084595;28;20039;-66
2021/10/08 00:33:05;;;;;;;36.90;20.83;;;;;;;11.44;91.54;102256.41;5084752;28;20402;-67
2021/10/08 00:35:30;;;;;;;42.55;22.25;;;;;;;11.36;91.95;102261.44;5084538;28;20070;-67
2021/10/08 00:37:55;;;;;;;40.33;23.10;;;;;;;11.28;92.31;102262.19;5084384;28;20451;-67
2021/10/08 00:40:21;;;;;;;43.53;24.65;;;;;;;11.25;92.24;102258.66;5084309;28;20084;-67
2021/10/08 00:42:48;;;;;;;43.50;24.25;;;;;;;11.22;92.55;102256.00;5084429;28;20025;-67
2021/10/08 00:45:14;;;;;;;38.45;20.35;;;;;;;11.21;92.90;102259.44;5084350;28;20025;-67
2021/10/08 00:47:39;;;;;;;45.05;24.15;;;;;;;11.21;92.78;102260.34;5084390;28;20031;-67
2021/10/08 00:50:07;;;;;;;44.45;25.02;;;;;;;11.23;92.39;102257.75;5084177;28;20024;-66
2021/10/08 00:52:32;;;;;;;41.15;22.95;;;;;;;11.23;92.33;102260.38;5084505;28;20032;-66
2021/10/08 00:54:57;;;;;;;43.33;22.50;;;;;;;11.23;92.41;102271.63;5084265;28;20021;-65
2021/10/08 00:57:23;;;;;;;42.47;24.75;;;;;;;11.15;92.27;102261.06;5084009;28;20469;-65
2021/10/08 00:59:49;;;;;;;45.38;22.85;;;;;;;11.15;92.54;102263.69;5084058;28;20028;-65
2021/10/08 01:02:15;;;;;;;49.92;23.65;;;;;;;11.14;92.39;102268.84;5084020;28;20047;-65
2021/10/08 01:04:41;;;;;;;50.55;25.38;;;;;;;11.07;92.46;102265.25;5084077;28;20028;-65
2021/10/08 01:07:06;;;;;;;50.78;24.95;;;;;;;11.05;92.69;102272.16;5083838;28;20055;-66
2021/10/08 01:09:31;;;;;;;50.53;25.88;;;;;;;11.07;92.61;102269.59;5083644;28;20214;-66
2021/10/08 01:11:57;;;;;;;47.72;26.42;;;;;;;11.02;93.14;102269.50;5083737;28;20020;-66
2021/10/08 01:14:22;;;;;;;49.92;26.67;;;;;;;10.97;93.42;102273.72;5083819;28;20226;-65
2021/10/08 01:16:47;;;;;;;54.58;26.98;;;;;;;11.00;93.30;102273.78;5083822;28;20048;-65
2021/10/08 01:19:13;;;;;;;43.50;24.58;;;;;;;11.00;93.40;102276.38;5084127;28;20028;-66
2021/10/08 01:21:38;;;;;;;54.33;27.25;;;;;;;11.00;93.50;102282.47;5065588;28;20044;-65
2021/10/08 01:24:04;;;;;;;49.72;26.35;;;;;;;10.99;93.53;102282.44;5083785;28;20029;-67
2021/10/08 01:26:29;;;;;;;49.88;26.20;;;;;;;10.99;93.46;102279.84;5083492;28;20107;-66
2021/10/08 01:28:55;;;;;;;42.53;24.15;;;;;;;10.98;93.32;102278.06;5082431;28;20025;-66
2021/10/08 01:31:20;;;;;;;45.80;24.13;;;;;;;11.02;93.75;102283.34;5083822;28;20025;-66
2021/10/08 01:33:45;;;;;;;42.08;22.38;;;;;;;11.05;93.67;102279.06;5083836;28;20024;-65
2021/10/08 01:36:11;;;;;;;43.40;22.67;;;;;;;11.06;93.80;102276.50;5083473;28;20411;-66
2021/10/08 01:38:36;;;;;;;39.47;22.63;;;;;;;11.06;93.50;102291.22;5083663;28;20102;-65
2021/10/08 01:41:01;;;;;;;41.53;23.17;;;;;;;11.06;93.39;102281.69;5083388;28;20039;-65
2021/10/08 01:43:27;;;;;;;42.65;24.90;;;;;;;11.09;93.09;102280.88;5083476;28;20028;-66
2021/10/08 01:45:52;;;;;;;46.70;24.73;;;;;;;11.08;92.88;102287.81;5083488;28;20411;-65
2021/10/08 01:48:18;;;;;;;44.75;24.98;;;;;;;11.03;93.27;102282.53;5083573;28;20042;-66
2021/10/08 01:50:43;;;;;;;46.75;23.65;;;;;;;11.00;93.51;102290.25;5083801;28;20020;-66
2021/10/08 01:53:09;;;;;;;52.67;25.98;;;;;;;10.98;92.52;102280.66;5083472;28;20083;-66
2021/10/08 01:55:35;;;;;;;53.35;25.05;;;;;;;10.95;93.00;102291.00;5083565;28;20065;-65
2021/10/08 01:58:00;;;;;;;54.50;24.15;;;;;;;10.96;92.52;102295.38;5065255;28;20066;-66
2021/10/08 02:00:26;;;;;;;48.00;23.60;;;;;;;10.89;92.90;102295.22;5083294;28;20046;-65
2021/10/08 02:02:51;;;;;;;57.38;24.13;;;;;;;10.85;93.03;102292.50;5083341;28;20016;-66
2021/10/08 02:05:16;;;;;;;63.75;26.45;;;;;;;10.81;93.07;102282.91;5083394;28;20024;-66
2021/10/08 02:07:42;;;;;;;62.55;27.80;;;;;;;10.80;93.20;102283.78;5083429;28;20108;-66
2021/10/08 02:10:08;;;;;;;71.97;30.65;;;;;;;10.76;93.58;102288.03;5083274;28;20084;-66
2021/10/08 02:12:34;;;;;;;76.40;31.92;;;;;;;10.71;93.51;102284.44;5083085;28;20024;-67
2021/10/08 02:15:00;;;;;;;74.88;32.88;;;;;;;10.68;93.89;102286.97;5083366;28;20100;-67
2021/10/08 02:17:25;;;;;;;75.55;32.10;;;;;;;10.59;93.73;102272.09;5083147;28;20020;-66
2021/10/08 02:19:50;;;;;;;93.80;35.72;;;;;;;10.62;93.80;102280.78;5083419;28;20030;-66
2021/10/08 02:22:16;;;;;;;96.50;35.60;;;;;;;10.57;93.86;102285.03;5087168;28;20075;-66
2021/10/08 02:24:41;;;;;;;88.47;32.60;;;;;;;10.59;93.73;102287.66;5087287;28;20064;-66
2021/10/08 02:27:06;;;;;;;117.28;36.55;;;;;;;10.56;93.69;102295.38;5086973;28;20031;-66
2021/10/08 02:29:32;;;;;;;110.40;34.40;;;;;;;10.49;93.73;102291.78;5087284;28;20020;-66
2021/10/08 02:31:57;;;;;;;154.63;37.20;;;;;;;10.52;93.88;102295.31;5087051;28;20040;-67
2021/10/08 02:34:23;;;;;;;201.65;50.25;;;;;;;10.52;93.76;102291.84;5087001;28;20076;-67
2021/10/08 02:36:48;;;;;;;215.45;46.47;;;;;;;10.54;93.84;102300.56;5068739;28;20025;-67
2021/10/08 02:39:13;;;;;;;200.75;39.20;;;;;;;10.52;93.94;102294.44;5086954;28;20029;-67
2021/10/08 02:41:39;;;;;;;259.15;46.85;;;;;;;10.49;94.09;102291.78;5086802;28;20056;-66
2021/10/08 02:44:04;;;;;;;261.65;47.05;;;;;;;10.48;94.14;102285.69;5086796;28;20033;-67
2021/10/08 02:46:30;;;;;;;211.65;43.20;;;;;;;10.49;94.92;102292.66;5086738;28;20024;-66
2021/10/08 02:48:55;;;;;;;237.80;46.97;;;;;;;10.54;94.90;102297.97;5068794;28;20027;-67
2021/10/08 02:51:20;;;;;;;219.02;41.97;;;;;;;10.60;94.94;102305.88;5086707;28;20025;-66
2021/10/08 02:53:46;;;;;;;234.35;42.80;;;;;;;10.62;94.85;102301.56;5086649;28;20066;-66
2021/10/08 02:56:11;;;;;;;314.23;59.92;;;;;;;10.65;94.86;102298.19;5086498;28;20050;-67
2021/10/08 02:58:37;;;;;;;278.20;55.05;;;;;;;10.68;95.10;102299.97;5086494;28;20035;-67
2021/10/08 03:01:02;;;;;;;268.67;44.70;;;;;;;10.73;95.19;102298.34;5086480;28;20032;-68
2021/10/08 03:03:28;;;;;;;331.70;54.80;;;;;;;10.74;95.31;102292.28;5086466;28;20050;-68
2021/10/08 03:05:53;;;;;;;277.27;41.35;;;;;;;10.83;94.92;102299.44;5086234;28;20095;-67
2021/10/08 03:08:18;;;;;;;472.60;67.15;;;;;;;10.81;95.37;102299.41;5086265;28;20016;-67
2021/10/08 03:10:44;;;;;;;380.25;54.65;;;;;;;10.81;95.38;102296.78;5086075;28;20028;-67
2021/10/08 03:13:09;;;;;;;423.17;58.63;;;;;;;10.90;95.06;102302.19;5086372;28;20021;-68
2021/10/08 03:15:34;;;;;;;416.00;60.33;;;;;;;10.90;95.39;102304.78;5086221;28;20511;-66
2021/10/08 03:18:00;;;;;;;423.67;62.85;;;;;;;10.99;95.24;102298.88;5086244;28;20020;-67
2021/10/08 03:20:26;;;;;;;305.48;57.15;;;;;;;10.99;95.39;102298.88;5086206;28;20028;-67
2021/10/08 03:22:51;;;;;;;478.33;66.38;;;;;;;10.99;95.26;102303.22;5085754;28;20048;-68
2021/10/08 03:25:16;;;;;;;224.85;49.50;;;;;;;11.05;95.38;102299.84;5085777;28;20028;-67
2021/10/08 03:27:42;;;;;;;341.65;59.55;;;;;;;11.11;95.30;102305.19;5085860;28;20039;-68
2021/10/08 03:30:14;;;;;;;539.65;78.03;;;;;;;11.13;95.31;102306.94;5085807;28;20047;-68
2021/10/08 03:32:40;;;;;;;314.45;55.88;;;;;;;11.17;95.51;102301.84;5067715;28;20059;-67
2021/10/08 03:35:07;;;;;;;241.93;43.50;;;;;;;11.21;95.50;102306.25;5085681;28;20017;-68
2021/10/08 03:40:31;;;;;;;263.92;48.97;;;;;;;11.19;95.32;102294.94;5085766;28;20062;-68
2021/10/08 03:42:59;;;;;;;271.85;56.80;;;;;;;11.25;95.09;102297.66;5085876;28;20480;-68
2021/10/08 03:45:30;;;;;;;249.95;52.17;;;;;;;11.28;94.90;102302.91;5085719;28;20025;-68
2021/10/08 03:48:04;;;;;;;351.45;64.55;;;;;;;11.31;94.98;102302.97;5085610;28;20035;-67
2021/10/08 03:50:30;;;;;;;247.35;52.88;;;;;;;11.32;95.32;102301.25;5085620;28;20025;-67
2021/10/08 03:52:55;;;;;;;233.20;54.30;;;;;;;11.36;95.31;102306.53;5085673;28;20039;-68
2021/10/08 03:55:21;;;;;;;205.10;47.55;;;;;;;11.39;95.10;102308.31;5100703;28;20095;-68
2021/10/08 03:57:46;;;;;;;277.52;57.25;;;;;;;11.39;95.36;102309.19;5085389;28;20160;-67
2021/10/08 04:00:12;;;;;;;255.90;56.13;;;;;;;11.41;95.17;102301.41;5085230;28;20466;-68
2021/10/08 04:02:38;;;;;;;258.90;54.85;;;;;;;11.45;95.36;102311.03;5085327;28;20020;-68
2021/10/08 04:05:03;;;;;;;262.50;59.03;;;;;;;11.43;95.21;102301.44;5085219;28;20021;-68
2021/10/08 04:07:29;;;;;;;159.68;48.83;;;;;;;11.46;95.45;102310.19;5085009;28;20634;-68
2021/10/08 04:09:54;;;;;;;240.45;56.53;;;;;;;11.49;95.17;102307.66;5085247;28;20047;-68
2021/10/08 04:12:20;;;;;;;287.60;60.72;;;;;;;11.51;95.07;102312.88;5084884;28;20127;-68
2021/10/08 04:14:45;;;;;;;268.02;56.33;;;;;;;11.51;94.98;102310.28;5084800;28;20017;-69
2021/10/08 04:17:10;;;;;;;219.18;55.33;;;;;;;11.49;95.40;102315.44;5084945;28;20020;-68
2021/10/08 04:19:36;;;;;;;267.33;53.25;;;;;;;11.53;95.13;102316.38;5084958;28;20044;-69
2021/10/08 04:22:01;;;;;;;261.00;48.17;;;;;;;11.52;94.81;102315.50;5084563;28;20137;-68
2021/10/08 04:24:26;;;;;;;314.50;58.47;;;;;;;11.55;94.76;102308.59;5084661;28;20031;-68
2021/10/08 04:26:52;;;;;;;359.13;63.17;;;;;;;11.51;94.72;102318.97;5084448;28;20081;-67
2021/10/08 04:29:17;;;;;;;295.92;56.72;;;;;;;11.51;94.71;102318.97;5084583;28;20063;-68
2021/10/08 04:31:42;;;;;;;385.15;58.47;;;;;;;11.49;94.86;102319.75;5084749;28;20024;-67
2021/10/08 04:34:08;;;;;;;386.13;57.55;;;;;;;11.49;94.51;102323.25;5084523;28;20094;-68
2021/10/08 04:36:33;;;;;;;484.00;58.45;;;;;;;11.45;95.17;102326.66;5084375;28;20025;-68
2021/10/08 04:38:58;;;;;;;370.23;48.95;;;;;;;11.44;94.92;102322.28;5084837;28;20024;-68
2021/10/08 04:41:24;;;;;;;436.08;53.70;;;;;;;11.28;94.99;102303.78;5084627;28;20024;-69
2021/10/08 04:43:49;;;;;;;537.00;63.33;;;;;;;11.36;94.77;102310.84;5083835;28;20487;-68
2021/10/08 04:46:15;;;;;;;500.67;62.65;;;;;;;11.42;94.91;102329.19;5084344;28;20483;-68
2021/10/08 04:48:40;;;;;;;457.75;56.80;;;;;;;11.37;95.47;102326.47;5084303;28;20031;-68
2021/10/08 04:51:05;;;;;;;637.63;73.78;;;;;;;11.38;95.38;102329.97;5084405;28;20020;-70
2021/10/08 04:53:31;;;;;;;378.98;46.47;;;;;;;11.41;95.13;102335.22;5084207;28;20023;-68
2021/10/08 04:55:56;;;;;;;448.73;55.92;;;;;;;11.35;94.98;102327.31;5084065;28;20023;-67
2021/10/08 04:58:22;;;;;;;597.00;79.43;;;;;;;11.44;95.09;102337.03;5084129;28;20020;-69
2021/10/08 05:00:47;;;;;;;374.85;58.53;;;;;;;11.40;95.15;102342.16;5084026;28;20391;-67
2021/10/08 05:03:18;;;;;;;278.67;57.10;;;;;;;11.43;95.35;102350.84;5083852;28;20039;-68
2021/10/08 05:05:50;;;;;;;338.30;60.95;;;;;;;11.45;95.49;102347.47;5083982;28;20046;-69
2021/10/08 05:08:16;;;;;;;339.15;62.63;;;;;;;11.48;95.46;102349.22;5084020;28;20112;-69
2021/10/08 05:10:41;;;;;;;383.63;68.03;;;;;;;11.43;95.44;102341.34;5083833;28;20032;-70
2021/10/08 05:13:06;;;;;;;354.50;62.35;;;;;;;11.50;95.32;102358.81;5083925;28;20059;-69
2021/10/08 05:15:34;;;;;;;460.00;70.93;;;;;;;11.48;95.51;102352.72;5083582;28;20021;-71
2021/10/08 05:18:00;;;;;;;376.90;62.33;;;;;;;11.55;95.55;102356.28;5065861;28;20392;-69
2021/10/08 05:20:25;;;;;;;269.77;57.42;;;;;;;11.57;95.13;102367.59;5084070;28;20029;-71
2021/10/08 05:22:50;;;;;;;225.45;56.90;;;;;;;11.60;95.44;102366.78;5083313;28;20102;-70
2021/10/08 05:25:18;;;;;;;244.45;59.72;;;;;;;11.63;95.68;102370.31;5083443;28;20080;-71
2021/10/08 05:27:44;;;;;;;218.30;57.97;;;;;;;11.69;95.44;102364.38;5083499;28;20020;-70
2021/10/08 05:30:11;;;;;;;175.55;52.67;;;;;;;11.70;95.13;102365.22;5083509;28;20035;-71
2021/10/08 05:32:37;;;;;;;226.85;59.30;;;;;;;11.71;95.69;102370.47;5083617;28;20020;-71
2021/10/08 05:35:03;;;;;;;235.30;58.63;;;;;;;11.74;95.61;102375.72;5083507;28;20046;-70
2021/10/08 05:37:28;;;;;;;230.90;59.10;;;;;;;11.81;95.62;102379.31;5083458;28;20024;-70
2021/10/08 05:39:54;;;;;;;197.70;52.35;;;;;;;11.84;95.22;102381.09;5083618;28;20023;-72
2021/10/08 05:42:19;;;;;;;219.82;58.13;;;;;;;11.76;95.07;102368.84;5083424;28;20111;-71
2021/10/08 05:44:44;;;;;;;200.57;55.13;;;;;;;11.83;95.57;102385.44;5083299;28;20021;-70
2021/10/08 05:47:10;;;;;;;186.90;54.75;;;;;;;11.70;95.19;102355.72;5083098;28;20020;-70
2021/10/08 05:49:35;;;;;;;169.20;52.10;;;;;;;11.92;95.43;102389.06;5083311;28;20021;-71
2021/10/08 05:52:00;;;;;;;155.50;44.03;;;;;;;11.94;94.55;102385.63;5082935;28;20052;-70
2021/10/08 05:54:26;;;;;;;182.00;51.28;;;;;;;11.89;94.78;102388.16;5082666;28;20044;-69
2021/10/08 05:56:51;;;;;;;169.57;52.33;;;;;;;11.89;94.22;102395.97;5082444;28;20020;-69
2021/10/08 05:59:16;;;;;;;166.65;51.80;;;;;;;11.87;94.07;102397.66;5083182;28;20029;-69
2021/10/08 06:01:42;;;;;;;146.57;47.83;;;;;;;11.80;94.95;102395.78;5083101;28;20232;-69
2021/10/08 06:04:08;;;;;;;154.63;49.20;;;;;;;11.78;94.85;102392.28;5082965;28;20025;-68
2021/10/08 06:06:34;;;;;;;135.77;44.17;;;;;;;11.84;94.48;102405.41;5083329;28;20016;-69
2021/10/08 06:09:00;;;;;;;129.18;40.25;;;;;;;11.87;94.22;102409.78;5083244;28;20024;-70
2021/10/08 06:11:25;;;;;;;128.00;43.15;;;;;;;11.77;94.18;102411.34;5083105;28;20032;-70
2021/10/08 06:13:50;;;;;;;120.03;40.47;;;;;;;11.85;93.72;102419.31;5083095;28;20479;-69
2021/10/08 06:16:16;;;;;;;101.32;33.10;;;;;;;11.81;93.42;102420.06;5083251;28;20017;-70
2021/10/08 06:18:50;;;;;;;126.80;43.38;;;;;;;11.72;93.67;102419.06;5082743;28;20024;-70
2021/10/08 06:21:15;;;;;;;128.00;44.42;;;;;;;11.76;93.39;102430.41;5083008;28;20064;-70
2021/10/08 06:23:41;;;;;;;109.70;37.90;;;;;;;11.70;93.36;102422.47;5083106;28;20021;-70
2021/10/08 06:26:06;;;;;;;113.35;40.33;;;;;;;11.69;93.64;102425.94;5082737;28;20021;-70
2021/10/08 06:28:32;;;;;;;93.82;35.58;;;;;;;11.78;93.26;102426.09;5082783;28;20021;-71
2021/10/08 06:30:57;;;;;;;80.95;35.92;;;;;;;11.79;93.99;102433.06;5083006;28;20032;-69
2021/10/08 06:33:23;;;;;;;83.55;36.30;;;;;;;11.80;93.84;102426.13;5082845;28;20036;-70
2021/10/08 06:35:48;;;;;;;82.53;35.95;;;;;;;11.77;93.45;102425.22;5082812;28;20470;-70
2021/10/08 06:38:14;;;;;;;93.32;38.60;;;;;;;11.73;93.87;102430.34;5064775;28;20088;-69
2021/10/08 06:40:40;;;;;;;69.38;31.90;;;;;;;11.75;94.47;102429.53;5082526;28;20097;-69
2021/10/08 06:43:06;;;;;;;87.90;37.28;;;;;;;11.83;94.08;102440.09;5082876;28;20052;-70
2021/10/08 06:45:34;;;;;;;69.00;33.30;;;;;;;11.83;94.76;102434.00;5082734;28;20033;-70
2021/10/08 06:47:59;;;;;;;67.68;27.33;;;;;;;11.97;93.14;102431.66;5082741;28;20028;-70
2021/10/08 06:50:25;;;;;;;62.17;30.08;;;;;;;11.90;93.14;102441.94;5082815;28;20108;-70
2021/10/08 06:52:51;;;;;;;69.82;31.08;;;;;;;11.87;93.44;102438.41;5082802;28;20029;-70
2021/10/08 06:55:16;;;;;;;64.43;31.38;;;;;;;11.83;93.67;102437.50;5082734;28;20032;-69
2021/10/08 06:57:42;;;;;;;69.55;32.53;;;;;;;11.93;92.99;102440.25;5082397;28;20021;-71
2021/10/08 07:00:08;;;;;;;75.85;35.28;;;;;;;11.88;92.76;102440.19;5082620;28;20097;-69
2021/10/08 07:02:33;;;;;;;60.83;29.30;;;;;;;11.82;93.61;102442.66;5082584;28;20584;-71
2021/10/08 07:04:59;;;;;;;46.63;25.85;;;;;;;11.89;93.85;102436.72;5082143;28;20033;-71
2021/10/08 07:07:26;;;;;;;49.72;28.13;;;;;;;12.08;93.56;102440.56;5066831;28;20021;-71
2021/10/08 07:09:53;;;;;;;39.95;22.73;;;;;;;12.44;93.29;102435.09;5086385;28;20508;-70
2021/10/08 07:12:19;;;;;;;34.22;22.30;;;;;;;12.67;93.62;102438.06;5086128;28;20047;-70
2021/10/08 07:14:44;;;;;;;29.33;20.90;;;;;;;13.04;94.11;102434.25;5086208;28;20472;-69
2021/10/08 07:17:12;;;;;;;30.50;19.73;;;;;;;13.49;95.55;102437.44;5086203;28;20050;-68
2021/10/08 07:19:38;;;;;;;27.85;18.05;;;;;;;13.86;94.40;102443.13;5086097;28;20104;-69
2021/10/08 07:22:03;;;;;;;31.42;19.27;;;;;;;13.89;94.20;102444.88;5085586;28;20041;-70
2021/10/08 07:24:28;;;;;;;25.13;17.80;;;;;;;13.92;93.07;102454.47;5085834;28;20020;-69
2021/10/08 07:26:54;;;;;;;27.33;17.85;;;;;;;13.97;92.20;102455.41;5067613;28;20029;-69
2021/10/08 07:29:22;;;;;;;24.17;15.13;;;;;;;14.10;91.94;102456.41;5085795;28;20102;-69
2021/10/08 07:31:47;;;;;;;26.98;17.73;;;;;;;14.22;90.69;102456.50;5085785;28;20024;-69
2021/10/08 07:34:13;;;;;;;24.60;17.88;;;;;;;14.31;91.11;102460.97;5085684;28;20032;-69
2021/10/08 07:36:38;;;;;;;27.48;17.10;;;;;;;14.22;88.99;102458.25;5085718;28;20089;-69
2021/10/08 07:39:04;;;;;;;27.40;18.90;;;;;;;14.06;87.14;102455.50;5085597;28;20032;-69
2021/10/08 07:41:29;;;;;;;28.73;17.98;;;;;;;13.85;87.71;102466.59;5085761;28;20020;-69
2021/10/08 07:43:54;;;;;;;32.40;20.27;;;;;;;13.72;87.52;102460.38;5085712;28;20083;-69
2021/10/08 07:46:20;;;;;;;28.33;16.95;;;;;;;13.59;87.05;102459.34;5085572;28;20044;-69
2021/10/08 07:48:45;;;;;;;31.63;19.90;;;;;;;13.41;87.41;102470.38;5085524;28;20028;-69
2021/10/08 07:51:10;;;;;;;32.60;19.17;;;;;;;13.29;86.98;102461.53;5085359;28;20108;-70
2021/10/08 07:53:36;;;;;;;25.80;15.52;;;;;;;13.37;88.10;102467.72;5067732;28;20089;-69
2021/10/08 07:56:02;;;;;;;29.00;18.15;;;;;;;13.36;87.72;102462.50;5067307;28;20024;-70
2021/10/08 07:58:28;;;;;;;25.00;16.80;;;;;;;13.37;88.17;102467.72;5085486;28;20490;-70
2021/10/08 08:00:57;;;;;;;25.05;15.82;;;;;;;13.45;88.08;102474.81;5085541;28;20029;-70
2021/10/08 08:03:23;;;;;;;25.38;15.07;;;;;;;13.36;88.26;102472.94;5085239;28;20440;-70
2021/10/08 08:05:49;;;;;;;28.38;16.90;;;;;;;13.38;86.77;102477.34;5085142;28;20077;-70
2021/10/08 08:08:15;;;;;;;24.70;17.40;;;;;;;13.22;87.85;102478.84;5085128;28;20032;-69
2021/10/08 08:10:40;;;;;;;22.85;15.20;;;;;;;13.25;87.45;102485.84;5084921;28;20032;-70
2021/10/08 08:13:05;;;;;;;30.67;18.77;;;;;;;13.17;87.43;102471.81;5084902;28;20062;-71
2021/10/08 08:15:31;;;;;;;30.65;18.17;;;;;;;13.16;87.65;102493.53;5085030;28;20032;-71
2021/10/08 08:17:56;;;;;;;24.85;15.85;;;;;;;13.21;87.82;102484.03;5083936;28;20033;-71
2021/10/08 08:20:21;;;;;;;23.75;16.55;;;;;;;13.19;88.26;102489.25;5084860;28;20021;-71
2021/10/08 08:22:47;;;;;;;20.67;13.65;;;;;;;13.25;88.45;102484.09;5066788;28;20044;-68
2021/10/08 08:25:12;;;;;;;23.13;14.82;;;;;;;13.29;88.77;102487.63;5084702;28;20025;-71
2021/10/08 08:27:38;;;;;;;22.10;15.48;;;;;;;13.40;88.73;102490.41;5084639;28;20498;-71
2021/10/08 08:30:05;;;;;;;24.23;15.05;;;;;;;13.42;89.10;102486.06;5084759;28;20054;-71
2021/10/08 08:32:31;;;;;;;20.58;14.02;;;;;;;13.49;89.19;102498.34;5085026;28;20029;-70
2021/10/08 08:35:01;;;;;;;24.65;15.48;;;;;;;13.59;89.05;102501.09;5084997;28;20076;-70
2021/10/08 08:37:26;;;;;;;23.63;14.40;;;;;;;13.61;89.18;102499.38;5084909;28;20024;-70
2021/10/08 08:39:52;;;;;;;21.35;14.73;;;;;;;13.71;89.26;102497.75;5085134;28;20025;-70
2021/10/08 08:42:19;;;;;;;21.77;12.00;;;;;;;13.74;89.53;102487.34;5066500;28;20025;-70
2021/10/08 08:44:44;;;;;;;18.13;12.05;;;;;;;13.79;89.30;102493.50;5084312;28;20035;-71
2021/10/08 08:47:20;;;;;;;14.95;10.45;;;;;;;13.94;89.15;102486.69;5084457;28;20040;-70
2021/10/08 08:49:47;;;;;;;17.02;10.02;;;;;;;14.03;88.44;102488.53;5084575;28;20479;-70
2021/10/08 08:52:13;;;;;;;12.55;8.95;;;;;;;14.15;88.04;102491.28;5066126;28;20077;-70
2021/10/08 08:54:42;;;;;;;16.73;9.23;;;;;;;14.23;87.98;102483.53;5084080;28;20020;-70
2021/10/08 08:57:12;;;;;;;16.05;9.02;;;;;;;14.44;87.44;102480.22;5083948;28;20499;-70
2021/10/08 08:59:58;;;;;;;17.90;9.95;;;;;;;14.62;86.95;102481.22;5084083;28;20108;-70
2021/10/08 09:02:25;;;;;;;13.35;8.52;;;;;;;15.05;86.31;102478.06;5065992;28;20059;-70
2021/10/08 09:04:50;;;;;;;13.93;7.43;;;;;;;15.35;84.66;102478.25;5084180;28;20286;-70
2021/10/08 09:07:16;;;;;;;15.55;8.35;;;;;;;15.53;83.42;102479.22;5083978;28;20099;-70
2021/10/08 09:09:41;;;;;;;11.40;6.72;;;;;;;15.56;83.38;102469.59;5084088;28;20024;-70
2021/10/08 09:12:07;;;;;;;13.07;7.22;;;;;;;15.56;82.04;102477.44;5083835;28;20035;-70
2021/10/08 09:14:33;;;;;;;13.55;7.85;;;;;;;15.47;82.41;102483.53;5083883;28;20047;-70
2021/10/08 09:17:11;;;;;;;12.65;7.82;;;;;;;15.26;79.24;102473.84;5083538;28;20512;-70
2021/10/08 09:19:48;;;;;;;14.90;7.80;;;;;;;15.03;79.37;102471.09;5065678;28;20021;-71
2021/10/08 09:22:20;;;;;;;13.38;7.78;;;;;;;15.02;80.45;102477.19;5083540;28;20444;-70
2021/10/08 09:24:45;;;;;;;10.45;7.70;;;;;;;14.84;79.01;102482.31;5083591;28;20059;-70
2021/10/08 09:27:13;;;;;;;17.65;9.30;;;;;;;14.84;79.99;102484.91;5083415;28;20025;-71
2021/10/08 09:29:47;;;;;;;11.95;8.20;;;;;;;14.90;80.44;102483.22;5083304;28;20352;-71
2021/10/08 09:32:13;;;;;;;11.38;8.18;;;;;;;15.00;81.35;102482.41;5083601;28;20109;-70
2021/10/08 09:34:38;;;;;;;12.15;8.00;;;;;;;15.06;81.58;102492.03;5083625;28;20022;-71
2021/10/08 09:37:08;;;;;;;11.95;7.50;;;;;;;15.28;82.10;102493.03;5083663;28;20107;-71
2021/10/08 09:39:34;;;;;;;10.15;7.63;;;;;;;15.30;80.59;102490.44;5083696;28;20080;-71
2021/10/08 09:42:02;;;;;;;11.85;8.18;;;;;;;15.28;81.57;102490.44;5083414;28;20027;-71
2021/10/08 09:44:30;;;;;;;14.50;8.35;;;;;;;15.33;81.70;102496.56;5083484;28;20237;-71
2021/10/08 09:47:14;;;;;;;13.57;9.35;;;;;;;15.45;82.05;102493.13;5083095;28;20033;-70
2021/10/08 09:49:40;;;;;;;13.65;8.55;;;;;;;15.50;81.17;102490.53;5083696;28;20142;-71
2021/10/08 09:52:32;;;;;;;11.48;8.38;;;;;;;15.55;81.04;102495.78;5083391;28;20025;-71
2021/10/08 09:54:58;;;;;;;13.02;8.40;;;;;;;15.44;80.42;102495.72;5080823;28;20088;-71
2021/10/08 09:57:25;;;;;;;14.20;8.27;;;;;;;15.44;81.14;102500.97;5082378;28;20414;-72
2021/10/08 09:59:59;;;;;;;13.98;7.75;;;;;;;15.44;81.29;102508.81;5082709;28;20039;-71
2021/10/08 10:02:24;;;;;;;15.68;8.52;;;;;;;15.38;81.38;102504.44;5083375;28;20433;-71
2021/10/08 10:04:52;;;;;;;11.45;7.50;;;;;;;15.40;81.31;102507.06;5083245;28;20029;-71
2021/10/08 10:07:20;;;;;;;11.35;7.72;;;;;;;15.40;80.49;102507.91;5083276;28;20123;-72
2021/10/08 10:09:46;;;;;;;16.48;8.45;;;;;;;15.31;80.82;102505.25;5065220;28;20257;-71
2021/10/08 10:12:14;;;;;;;10.48;7.60;;;;;;;15.22;80.75;102504.34;5083209;28;20138;-72
2021/10/08 10:14:43;;;;;;;14.98;7.72;;;;;;;15.05;80.79;102506.00;5083246;28;20036;-72
2021/10/08 10:17:08;;;;;;;12.55;8.98;;;;;;;15.04;80.81;102515.56;5083007;28;20027;-72
2021/10/08 10:19:39;;;;;;;15.82;8.90;;;;;;;15.10;80.22;102512.13;5065082;28;20493;-72
2021/10/08 10:22:05;;;;;;;11.77;8.88;;;;;;;15.00;80.25;102511.16;5083223;28;20047;-72
2021/10/08 10:24:32;;;;;;;13.90;8.55;;;;;;;14.93;81.68;102512.88;5082668;28;20020;-71
2021/10/08 10:26:57;;;;;;;12.50;7.63;;;;;;;14.90;81.78;102514.59;5083021;28;20063;-71
2021/10/08 10:29:23;;;;;;;12.05;8.10;;;;;;;14.89;81.31;102510.25;5083126;28;20029;-71
2021/10/08 10:31:52;;;;;;;11.57;8.40;;;;;;;14.87;81.16;102508.47;5082946;28;20042;-71
2021/10/08 10:34:17;;;;;;;11.88;8.48;;;;;;;14.81;80.83;102516.28;5082910;28;20020;-71
2021/10/08 10:36:43;;;;;;;15.57;8.43;;;;;;;14.83;80.85;102511.06;5082980;28;20031;-71
2021/10/08 10:39:14;;;;;;;15.13;8.65;;;;;;;14.74;79.88;102512.69;5083279;28;20031;-71
2021/10/08 10:41:41;;;;;;;12.18;8.35;;;;;;;14.77;80.89;102505.75;5066228;28;20020;-71
2021/10/08 10:44:33;;;;;;;11.25;8.20;;;;;;;14.74;80.84;102510.06;5087207;28;20108;-72
2021/10/08 10:47:15;;;;;;;12.07;9.27;;;;;;;14.74;81.23;102512.69;5086830;28;20027;-71
2021/10/08 10:49:50;;;;;;;13.70;8.18;;;;;;;14.62;79.78;102505.66;5086881;28;20028;-72
2021/10/08 10:52:19;;;;;;;15.93;9.30;;;;;;;14.61;79.71;102513.47;5086750;28;20020;-71
2021/10/08 10:54:53;;;;;;;10.68;8.07;;;;;;;14.69;80.78;102498.72;5086805;28;20036;-71
2021/10/08 10:57:19;;;;;;;11.27;8.20;;;;;;;15.07;81.30;102505.13;5086355;28;20087;-70
2021/10/08 10:59:45;;;;;;;11.05;7.90;;;;;;;15.89;79.73;102500.25;5086694;28;20024;-71
2021/10/08 11:02:17;;;;;;;13.57;7.95;;;;;;;16.29;79.00;102504.75;5086482;28;20043;-71
2021/10/08 11:04:49;;;;;;;11.77;7.78;;;;;;;16.91;77.56;102507.38;5086235;28;20528;-71
2021/10/08 11:07:19;;;;;;;11.30;8.27;;;;;;;17.53;74.83;102508.09;5086265;28;20032;-71